Roanoke, Alabama
Current Conditions -  °F | °C
As of 9:35 PM on Wednesday 22 Oct 2014 (Local Time) from KLGC Reporting Station
Clear Clear  
Wind Chill: 58°   Ceiling: Unl
Heat Index: 58°   Visibility: 10mi
Dew Point: 47°   Wind: 5mph
Humidity: 68%   Direction: 10°N
Pressure: 30.12"   Gusts: NA
Location:  33.15°N, 85.37°W
Report Text: KLGC 230235Z AUTO 01004KT 10SM CLR 14/08 A3012 RMK AO2 T01420083
Loading
Personal Weather Stations






























Interactive Weather Map
Tropical Storm Tracking
New forecast layout! Learn more

10-Day Weather Forecast

Advertisements
Track Severe Weather on mobile